sensor_id;sensor_type;location;lat;lon;timestamp;P1;durP1;ratioP1;P2;durP2;ratioP2
59089;SDS011;44878;50.102;18.982;2023-04-04T00:02:51;17.43;;;15.13;;
59089;SDS011;44878;50.102;18.982;2023-04-04T00:05:17;17.87;;;15.63;;
59089;SDS011;44878;50.102;18.982;2023-04-04T00:07:46;17.00;;;15.23;;
59089;SDS011;44878;50.102;18.982;2023-04-04T00:10:12;19.13;;;15.70;;
59089;SDS011;44878;50.102;18.982;2023-04-04T00:12:38;17.33;;;15.53;;
59089;SDS011;44878;50.102;18.982;2023-04-04T00:15:04;18.43;;;16.53;;
59089;SDS011;44878;50.102;18.982;2023-04-04T00:17:30;20.07;;;16.83;;
59089;SDS011;44878;50.102;18.982;2023-04-04T00:19:56;17.10;;;15.20;;
59089;SDS011;44878;50.102;18.982;2023-04-04T00:22:23;19.07;;;16.83;;
59089;SDS011;44878;50.102;18.982;2023-04-04T00:24:49;18.10;;;16.20;;
59089;SDS011;44878;50.102;18.982;2023-04-04T00:27:15;18.63;;;16.67;;
59089;SDS011;44878;50.102;18.982;2023-04-04T00:29:42;19.30;;;17.30;;
59089;SDS011;44878;50.102;18.982;2023-04-04T00:32:07;17.93;;;16.07;;
59089;SDS011;44878;50.102;18.982;2023-04-04T00:34:33;18.20;;;16.20;;
59089;SDS011;44878;50.102;18.982;2023-04-04T00:37:01;18.23;;;16.42;;
59089;SDS011;44878;50.102;18.982;2023-04-04T00:39:27;19.67;;;17.57;;
59089;SDS011;44878;50.102;18.982;2023-04-04T00:41:52;18.90;;;16.90;;
59089;SDS011;44878;50.102;18.982;2023-04-04T00:44:19;19.73;;;17.70;;
59089;SDS011;44878;50.102;18.982;2023-04-04T00:46:44;19.07;;;16.33;;
59089;SDS011;44878;50.102;18.982;2023-04-04T00:49:11;19.83;;;17.00;;
59089;SDS011;44878;50.102;18.982;2023-04-04T00:51:36;18.30;;;16.07;;
59089;SDS011;44878;50.102;18.982;2023-04-04T00:54:03;18.47;;;16.43;;
59089;SDS011;44878;50.102;18.982;2023-04-04T00:56:31;18.60;;;16.53;;
59089;SDS011;44878;50.102;18.982;2023-04-04T00:58:57;19.90;;;16.70;;
59089;SDS011;44878;50.102;18.982;2023-04-04T01:01:25;18.35;;;16.38;;
59089;SDS011;44878;50.102;18.982;2023-04-04T01:03:51;17.67;;;15.03;;
59089;SDS011;44878;50.102;18.982;2023-04-04T01:06:17;17.10;;;15.30;;
59089;SDS011;44878;50.102;18.982;2023-04-04T01:08:43;17.00;;;15.23;;
59089;SDS011;44878;50.102;18.982;2023-04-04T01:11:10;19.05;;;15.95;;
59089;SDS011;44878;50.102;18.982;2023-04-04T01:13:36;19.43;;;16.43;;
59089;SDS011;44878;50.102;18.982;2023-04-04T01:16:01;17.90;;;16.00;;
59089;SDS011;44878;50.102;18.982;2023-04-04T01:18:27;19.17;;;16.33;;
59089;SDS011;44878;50.102;18.982;2023-04-04T01:21:00;19.00;;;17.00;;
59089;SDS011;44878;50.102;18.982;2023-04-04T01:26:05;18.03;;;16.00;;
59089;SDS011;44878;50.102;18.982;2023-04-04T01:28:32;17.45;;;15.70;;
59089;SDS011;44878;50.102;18.982;2023-04-04T01:30:58;19.33;;;17.20;;
59089;SDS011;44878;50.102;18.982;2023-04-04T01:33:27;18.70;;;16.70;;
59089;SDS011;44878;50.102;18.982;2023-04-04T01:41:01;21.37;;;19.13;;
59089;SDS011;44878;50.102;18.982;2023-04-04T01:43:31;21.50;;;17.40;;
59089;SDS011;44878;50.102;18.982;2023-04-04T01:46:00;18.63;;;16.63;;
59089;SDS011;44878;50.102;18.982;2023-04-04T01:48:26;20.27;;;17.70;;
59089;SDS011;44878;50.102;18.982;2023-04-04T01:50:52;19.40;;;17.07;;
59089;SDS011;44878;50.102;18.982;2023-04-04T01:53:18;19.20;;;17.00;;
59089;SDS011;44878;50.102;18.982;2023-04-04T01:55:44;19.27;;;15.93;;
59089;SDS011;44878;50.102;18.982;2023-04-04T01:58:10;17.10;;;15.30;;
59089;SDS011;44878;50.102;18.982;2023-04-04T02:00:36;19.57;;;15.17;;
59089;SDS011;44878;50.102;18.982;2023-04-04T02:03:02;17.70;;;15.87;;
59089;SDS011;44878;50.102;18.982;2023-04-04T02:05:28;18.20;;;16.23;;
59089;SDS011;44878;50.102;18.982;2023-04-04T02:07:54;17.13;;;15.30;;
59089;SDS011;44878;50.102;18.982;2023-04-04T02:10:20;17.30;;;15.33;;
59089;SDS011;44878;50.102;18.982;2023-04-04T02:12:46;17.47;;;15.53;;
59089;SDS011;44878;50.102;18.982;2023-04-04T02:15:14;18.90;;;16.93;;
59089;SDS011;44878;50.102;18.982;2023-04-04T02:17:45;19.03;;;16.60;;
59089;SDS011;44878;50.102;18.982;2023-04-04T02:20:14;20.33;;;16.93;;
59089;SDS011;44878;50.102;18.982;2023-04-04T02:22:50;20.57;;;17.40;;
59089;SDS011;44878;50.102;18.982;2023-04-04T02:25:17;18.13;;;16.23;;
59089;SDS011;44878;50.102;18.982;2023-04-04T02:27:43;18.93;;;16.57;;
59089;SDS011;44878;50.102;18.982;2023-04-04T02:30:08;19.33;;;17.13;;
59089;SDS011;44878;50.102;18.982;2023-04-04T02:32:35;18.47;;;16.50;;
59089;SDS011;44878;50.102;18.982;2023-04-04T02:35:02;18.93;;;17.03;;
59089;SDS011;44878;50.102;18.982;2023-04-04T02:37:29;18.00;;;16.20;;
59089;SDS011;44878;50.102;18.982;2023-04-04T02:40:04;18.33;;;16.37;;
59089;SDS011;44878;50.102;18.982;2023-04-04T02:42:30;18.53;;;16.53;;
59089;SDS011;44878;50.102;18.982;2023-04-04T02:44:55;18.30;;;16.50;;
59089;SDS011;44878;50.102;18.982;2023-04-04T02:47:22;20.80;;;18.67;;
59089;SDS011;44878;50.102;18.982;2023-04-04T02:49:48;20.43;;;18.33;;
59089;SDS011;44878;50.102;18.982;2023-04-04T02:52:14;17.77;;;15.90;;
59089;SDS011;44878;50.102;18.982;2023-04-04T02:54:40;21.37;;;19.27;;
59089;SDS011;44878;50.102;18.982;2023-04-04T02:57:06;18.10;;;16.30;;
59089;SDS011;44878;50.102;18.982;2023-04-04T02:59:31;19.23;;;16.77;;
59089;SDS011;44878;50.102;18.982;2023-04-04T03:01:57;19.43;;;17.27;;
59089;SDS011;44878;50.102;18.982;2023-04-04T03:04:24;18.80;;;16.80;;
59089;SDS011;44878;50.102;18.982;2023-04-04T03:06:50;19.80;;;17.80;;
59089;SDS011;44878;50.102;18.982;2023-04-04T03:09:16;19.63;;;17.63;;
59089;SDS011;44878;50.102;18.982;2023-04-04T03:11:42;21.00;;;18.83;;
59089;SDS011;44878;50.102;18.982;2023-04-04T03:14:08;21.33;;;18.07;;
59089;SDS011;44878;50.102;18.982;2023-04-04T03:16:34;20.70;;;18.60;;
59089;SDS011;44878;50.102;18.982;2023-04-04T03:18:59;20.83;;;18.63;;
59089;SDS011;44878;50.102;18.982;2023-04-04T03:21:25;18.93;;;16.63;;
59089;SDS011;44878;50.102;18.982;2023-04-04T03:23:51;19.53;;;17.53;;
59089;SDS011;44878;50.102;18.982;2023-04-04T03:26:17;23.13;;;20.67;;
59089;SDS011;44878;50.102;18.982;2023-04-04T03:28:43;21.43;;;19.23;;
59089;SDS011;44878;50.102;18.982;2023-04-04T03:31:09;21.00;;;18.70;;
59089;SDS011;44878;50.102;18.982;2023-04-04T03:33:35;22.03;;;19.80;;
59089;SDS011;44878;50.102;18.982;2023-04-04T03:36:12;20.75;;;18.60;;
59089;SDS011;44878;50.102;18.982;2023-04-04T03:38:38;21.27;;;18.97;;
59089;SDS011;44878;50.102;18.982;2023-04-04T03:41:04;21.87;;;19.57;;
59089;SDS011;44878;50.102;18.982;2023-04-04T03:43:33;19.80;;;17.70;;
59089;SDS011;44878;50.102;18.982;2023-04-04T03:46:03;21.00;;;18.77;;
59089;SDS011;44878;50.102;18.982;2023-04-04T03:48:29;22.57;;;19.30;;
59089;SDS011;44878;50.102;18.982;2023-04-04T03:50:55;19.23;;;16.60;;
59089;SDS011;44878;50.102;18.982;2023-04-04T03:53:22;18.75;;;16.77;;
59089;SDS011;44878;50.102;18.982;2023-04-04T03:55:48;19.60;;;17.10;;
59089;SDS011;44878;50.102;18.982;2023-04-04T03:58:14;18.87;;;15.10;;
59089;SDS011;44878;50.102;18.982;2023-04-04T04:00:40;20.53;;;17.67;;
59089;SDS011;44878;50.102;18.982;2023-04-04T04:03:05;20.97;;;16.80;;
59089;SDS011;44878;50.102;18.982;2023-04-04T04:05:32;18.97;;;16.97;;
59089;SDS011;44878;50.102;18.982;2023-04-04T04:07:57;20.37;;;18.17;;
59089;SDS011;44878;50.102;18.982;2023-04-04T04:10:23;20.50;;;16.67;;
59089;SDS011;44878;50.102;18.982;2023-04-04T04:12:49;23.03;;;20.27;;
59089;SDS011;44878;50.102;18.982;2023-04-04T04:15:15;27.30;;;23.70;;
59089;SDS011;44878;50.102;18.982;2023-04-04T04:17:44;21.80;;;17.40;;
59089;SDS011;44878;50.102;18.982;2023-04-04T04:20:10;20.13;;;17.23;;
59089;SDS011;44878;50.102;18.982;2023-04-04T04:22:36;20.80;;;18.70;;
59089;SDS011;44878;50.102;18.982;2023-04-04T04:25:02;20.60;;;16.77;;
59089;SDS011;44878;50.102;18.982;2023-04-04T04:27:28;20.90;;;16.93;;
59089;SDS011;44878;50.102;18.982;2023-04-04T04:29:55;19.98;;;17.38;;
59089;SDS011;44878;50.102;18.982;2023-04-04T04:32:27;18.60;;;16.60;;
59089;SDS011;44878;50.102;18.982;2023-04-04T04:34:53;18.63;;;15.73;;
59089;SDS011;44878;50.102;18.982;2023-04-04T04:37:19;20.07;;;17.33;;
59089;SDS011;44878;50.102;18.982;2023-04-04T04:39:45;18.33;;;16.43;;
59089;SDS011;44878;50.102;18.982;2023-04-04T04:42:11;24.37;;;20.17;;
59089;SDS011;44878;50.102;18.982;2023-04-04T04:44:37;18.30;;;16.23;;
59089;SDS011;44878;50.102;18.982;2023-04-04T04:47:02;20.47;;;15.67;;
59089;SDS011;44878;50.102;18.982;2023-04-04T04:49:28;19.83;;;17.50;;
59089;SDS011;44878;50.102;18.982;2023-04-04T04:51:54;19.13;;;17.07;;
59089;SDS011;44878;50.102;18.982;2023-04-04T04:54:20;21.03;;;16.63;;
59089;SDS011;44878;50.102;18.982;2023-04-04T04:56:46;18.33;;;16.43;;
59089;SDS011;44878;50.102;18.982;2023-04-04T04:59:12;19.43;;;17.37;;
59089;SDS011;44878;50.102;18.982;2023-04-04T05:01:40;20.90;;;18.67;;
59089;SDS011;44878;50.102;18.982;2023-04-04T05:04:06;19.23;;;17.23;;
59089;SDS011;44878;50.102;18.982;2023-04-04T05:06:31;20.60;;;18.37;;
59089;SDS011;44878;50.102;18.982;2023-04-04T05:09:00;21.20;;;17.07;;
59089;SDS011;44878;50.102;18.982;2023-04-04T05:11:26;18.07;;;16.17;;
59089;SDS011;44878;50.102;18.982;2023-04-04T05:13:52;17.97;;;15.87;;
59089;SDS011;44878;50.102;18.982;2023-04-04T05:16:18;19.90;;;17.03;;
59089;SDS011;44878;50.102;18.982;2023-04-04T05:18:45;21.43;;;16.23;;
59089;SDS011;44878;50.102;18.982;2023-04-04T05:21:11;19.30;;;17.00;;
59089;SDS011;44878;50.102;18.982;2023-04-04T05:23:37;18.93;;;15.80;;
59089;SDS011;44878;50.102;18.982;2023-04-04T05:26:03;19.13;;;16.37;;
59089;SDS011;44878;50.102;18.982;2023-04-04T05:28:29;19.23;;;15.73;;
59089;SDS011;44878;50.102;18.982;2023-04-04T05:30:54;19.00;;;15.43;;
59089;SDS011;44878;50.102;18.982;2023-04-04T05:33:22;17.67;;;15.77;;
59089;SDS011;44878;50.102;18.982;2023-04-04T05:35:48;18.83;;;15.10;;
59089;SDS011;44878;50.102;18.982;2023-04-04T05:38:14;17.53;;;14.77;;
59089;SDS011;44878;50.102;18.982;2023-04-04T05:40:39;18.80;;;15.63;;
59089;SDS011;44878;50.102;18.982;2023-04-04T05:43:05;19.07;;;14.60;;
59089;SDS011;44878;50.102;18.982;2023-04-04T05:45:31;17.77;;;14.13;;
59089;SDS011;44878;50.102;18.982;2023-04-04T05:47:57;15.47;;;12.93;;
59089;SDS011;44878;50.102;18.982;2023-04-04T05:50:23;16.03;;;13.67;;
59089;SDS011;44878;50.102;18.982;2023-04-04T05:52:49;14.77;;;12.20;;
59089;SDS011;44878;50.102;18.982;2023-04-04T05:55:17;14.67;;;12.23;;
59089;SDS011;44878;50.102;18.982;2023-04-04T05:57:47;18.33;;;14.23;;
59089;SDS011;44878;50.102;18.982;2023-04-04T06:00:13;16.00;;;12.10;;
59089;SDS011;44878;50.102;18.982;2023-04-04T06:02:40;13.63;;;10.63;;
59089;SDS011;44878;50.102;18.982;2023-04-04T06:05:06;18.10;;;11.60;;
59089;SDS011;44878;50.102;18.982;2023-04-04T06:07:32;11.60;;;10.33;;
59089;SDS011;44878;50.102;18.982;2023-04-04T06:09:58;18.67;;;12.20;;
59089;SDS011;44878;50.102;18.982;2023-04-04T06:12:24;14.40;;;11.70;;
59089;SDS011;44878;50.102;18.982;2023-04-04T06:14:50;16.70;;;11.63;;
59089;SDS011;44878;50.102;18.982;2023-04-04T06:17:16;14.13;;;11.23;;
59089;SDS011;44878;50.102;18.982;2023-04-04T06:19:42;14.10;;;12.60;;
59089;SDS011;44878;50.102;18.982;2023-04-04T06:22:08;13.27;;;11.40;;
59089;SDS011;44878;50.102;18.982;2023-04-04T06:24:33;14.27;;;10.13;;
59089;SDS011;44878;50.102;18.982;2023-04-04T06:26:59;16.30;;;10.50;;
59089;SDS011;44878;50.102;18.982;2023-04-04T06:29:26;13.77;;;10.63;;
59089;SDS011;44878;50.102;18.982;2023-04-04T06:31:52;13.77;;;10.40;;
59089;SDS011;44878;50.102;18.982;2023-04-04T06:34:19;14.33;;;9.73;;
59089;SDS011;44878;50.102;18.982;2023-04-04T06:36:45;12.30;;;9.80;;
59089;SDS011;44878;50.102;18.982;2023-04-04T06:39:11;11.73;;;9.40;;
59089;SDS011;44878;50.102;18.982;2023-04-04T06:41:37;15.47;;;9.63;;
59089;SDS011;44878;50.102;18.982;2023-04-04T06:44:03;11.60;;;9.07;;
59089;SDS011;44878;50.102;18.982;2023-04-04T06:46:29;17.10;;;11.17;;
59089;SDS011;44878;50.102;18.982;2023-04-04T06:48:57;13.75;;;9.52;;
59089;SDS011;44878;50.102;18.982;2023-04-04T06:51:23;14.97;;;9.37;;
59089;SDS011;44878;50.102;18.982;2023-04-04T06:53:50;13.65;;;8.90;;
59089;SDS011;44878;50.102;18.982;2023-04-04T06:56:16;11.80;;;8.23;;
59089;SDS011;44878;50.102;18.982;2023-04-04T06:58:42;12.23;;;8.07;;
59089;SDS011;44878;50.102;18.982;2023-04-04T07:01:08;11.27;;;7.60;;
59089;SDS011;44878;50.102;18.982;2023-04-04T07:03:37;9.87;;;7.83;;
59089;SDS011;44878;50.102;18.982;2023-04-04T07:06:06;12.63;;;8.47;;
59089;SDS011;44878;50.102;18.982;2023-04-04T07:08:34;10.55;;;6.97;;
59089;SDS011;44878;50.102;18.982;2023-04-04T07:11:00;8.85;;;6.75;;
59089;SDS011;44878;50.102;18.982;2023-04-04T07:13:26;9.98;;;6.10;;
59089;SDS011;44878;50.102;18.982;2023-04-04T07:15:52;9.38;;;6.13;;
59089;SDS011;44878;50.102;18.982;2023-04-04T07:18:18;11.32;;;6.07;;
59089;SDS011;44878;50.102;18.982;2023-04-04T07:20:47;8.60;;;5.90;;
59089;SDS011;44878;50.102;18.982;2023-04-04T07:23:13;9.95;;;6.50;;
59089;SDS011;44878;50.102;18.982;2023-04-04T07:25:40;7.68;;;5.60;;
59089;SDS011;44878;50.102;18.982;2023-04-04T07:28:06;8.88;;;6.10;;
59089;SDS011;44878;50.102;18.982;2023-04-04T07:30:33;8.90;;;5.97;;
59089;SDS011;44878;50.102;18.982;2023-04-04T07:32:59;10.38;;;6.75;;
59089;SDS011;44878;50.102;18.982;2023-04-04T07:35:25;10.43;;;6.15;;
59089;SDS011;44878;50.102;18.982;2023-04-04T07:37:51;10.50;;;6.30;;
59089;SDS011;44878;50.102;18.982;2023-04-04T07:40:17;9.65;;;6.47;;
59089;SDS011;44878;50.102;18.982;2023-04-04T07:42:43;8.05;;;6.18;;
59089;SDS011;44878;50.102;18.982;2023-04-04T07:45:13;7.97;;;5.22;;
59089;SDS011;44878;50.102;18.982;2023-04-04T07:47:42;8.27;;;5.10;;
59089;SDS011;44878;50.102;18.982;2023-04-04T07:50:09;7.43;;;5.07;;
59089;SDS011;44878;50.102;18.982;2023-04-04T07:52:35;6.38;;;4.90;;
59089;SDS011;44878;50.102;18.982;2023-04-04T07:55:02;8.27;;;4.75;;
59089;SDS011;44878;50.102;18.982;2023-04-04T07:57:28;8.43;;;5.70;;
59089;SDS011;44878;50.102;18.982;2023-04-04T08:00:00;8.38;;;6.07;;
59089;SDS011;44878;50.102;18.982;2023-04-04T08:02:26;6.82;;;5.40;;
59089;SDS011;44878;50.102;18.982;2023-04-04T08:04:52;9.57;;;5.28;;
59089;SDS011;44878;50.102;18.982;2023-04-04T08:07:18;10.93;;;5.93;;
59089;SDS011;44878;50.102;18.982;2023-04-04T08:09:44;7.47;;;5.38;;
59089;SDS011;44878;50.102;18.982;2023-04-04T08:12:10;7.18;;;5.30;;
59089;SDS011;44878;50.102;18.982;2023-04-04T08:14:36;8.13;;;4.90;;
59089;SDS011;44878;50.102;18.982;2023-04-04T08:17:03;6.70;;;4.72;;
59089;SDS011;44878;50.102;18.982;2023-04-04T08:19:29;8.57;;;4.50;;
59089;SDS011;44878;50.102;18.982;2023-04-04T08:21:55;6.30;;;4.72;;
59089;SDS011;44878;50.102;18.982;2023-04-04T08:24:21;6.50;;;4.70;;
59089;SDS011;44878;50.102;18.982;2023-04-04T08:26:49;6.47;;;4.38;;
59089;SDS011;44878;50.102;18.982;2023-04-04T08:29:16;6.82;;;4.53;;
59089;SDS011;44878;50.102;18.982;2023-04-04T08:31:41;8.05;;;5.22;;
59089;SDS011;44878;50.102;18.982;2023-04-04T08:34:07;6.40;;;4.13;;
59089;SDS011;44878;50.102;18.982;2023-04-04T08:36:33;6.25;;;4.13;;
59089;SDS011;44878;50.102;18.982;2023-04-04T08:39:03;6.03;;;4.18;;
59089;SDS011;44878;50.102;18.982;2023-04-04T08:41:31;10.07;;;4.97;;
59089;SDS011;44878;50.102;18.982;2023-04-04T08:44:01;5.80;;;4.50;;
59089;SDS011;44878;50.102;18.982;2023-04-04T08:46:28;7.35;;;4.95;;
59089;SDS011;44878;50.102;18.982;2023-04-04T08:48:55;7.18;;;4.47;;
59089;SDS011;44878;50.102;18.982;2023-04-04T08:51:20;8.85;;;4.38;;
59089;SDS011;44878;50.102;18.982;2023-04-04T08:53:47;7.20;;;3.95;;
59089;SDS011;44878;50.102;18.982;2023-04-04T08:56:13;6.13;;;4.13;;
59089;SDS011;44878;50.102;18.982;2023-04-04T08:58:39;8.60;;;4.53;;
59089;SDS011;44878;50.102;18.982;2023-04-04T09:01:05;6.82;;;3.80;;
59089;SDS011;44878;50.102;18.982;2023-04-04T09:03:32;6.15;;;3.95;;
59089;SDS011;44878;50.102;18.982;2023-04-04T09:06:02;7.95;;;4.22;;
59089;SDS011;44878;50.102;18.982;2023-04-04T09:08:28;7.53;;;4.53;;
59089;SDS011;44878;50.102;18.982;2023-04-04T09:10:54;6.88;;;3.67;;
59089;SDS011;44878;50.102;18.982;2023-04-04T09:13:21;5.80;;;3.35;;
59089;SDS011;44878;50.102;18.982;2023-04-04T09:15:48;5.57;;;3.70;;
59089;SDS011;44878;50.102;18.982;2023-04-04T09:18:14;5.18;;;3.78;;
59089;SDS011;44878;50.102;18.982;2023-04-04T09:20:44;6.10;;;4.07;;
59089;SDS011;44878;50.102;18.982;2023-04-04T09:23:11;6.97;;;3.83;;
59089;SDS011;44878;50.102;18.982;2023-04-04T09:25:41;6.90;;;4.15;;
59089;SDS011;44878;50.102;18.982;2023-04-04T09:28:09;6.93;;;4.17;;
59089;SDS011;44878;50.102;18.982;2023-04-04T09:30:35;6.60;;;4.23;;
59089;SDS011;44878;50.102;18.982;2023-04-04T09:33:04;7.03;;;3.67;;
59089;SDS011;44878;50.102;18.982;2023-04-04T09:35:32;7.47;;;4.37;;
59089;SDS011;44878;50.102;18.982;2023-04-04T09:37:59;5.80;;;3.73;;
59089;SDS011;44878;50.102;18.982;2023-04-04T09:40:24;5.53;;;3.50;;
59089;SDS011;44878;50.102;18.982;2023-04-04T09:42:52;6.53;;;3.40;;
59089;SDS011;44878;50.102;18.982;2023-04-04T09:45:19;7.47;;;3.70;;
59089;SDS011;44878;50.102;18.982;2023-04-04T09:47:46;5.70;;;3.77;;
59089;SDS011;44878;50.102;18.982;2023-04-04T09:50:19;5.83;;;3.40;;
59089;SDS011;44878;50.102;18.982;2023-04-04T09:52:47;4.43;;;3.00;;
59089;SDS011;44878;50.102;18.982;2023-04-04T09:55:13;5.72;;;3.60;;
59089;SDS011;44878;50.102;18.982;2023-04-04T09:57:39;8.63;;;4.30;;
59089;SDS011;44878;50.102;18.982;2023-04-04T10:00:05;5.57;;;3.60;;
59089;SDS011;44878;50.102;18.982;2023-04-04T10:02:36;6.70;;;3.70;;
59089;SDS011;44878;50.102;18.982;2023-04-04T10:05:02;5.97;;;3.70;;
59089;SDS011;44878;50.102;18.982;2023-04-04T10:07:29;5.13;;;3.57;;
59089;SDS011;44878;50.102;18.982;2023-04-04T10:09:55;6.30;;;3.80;;
59089;SDS011;44878;50.102;18.982;2023-04-04T10:12:21;6.77;;;4.23;;
59089;SDS011;44878;50.102;18.982;2023-04-04T10:14:48;7.00;;;4.32;;
59089;SDS011;44878;50.102;18.982;2023-04-04T10:17:14;7.17;;;3.87;;
59089;SDS011;44878;50.102;18.982;2023-04-04T10:19:40;6.23;;;3.73;;
59089;SDS011;44878;50.102;18.982;2023-04-04T10:22:07;7.43;;;4.70;;
59089;SDS011;44878;50.102;18.982;2023-04-04T10:24:34;6.23;;;3.83;;
59089;SDS011;44878;50.102;18.982;2023-04-04T10:27:00;7.97;;;4.77;;
59089;SDS011;44878;50.102;18.982;2023-04-04T10:29:26;8.63;;;4.97;;
59089;SDS011;44878;50.102;18.982;2023-04-04T10:31:56;7.83;;;4.10;;
59089;SDS011;44878;50.102;18.982;2023-04-04T10:36:51;7.10;;;4.73;;
59089;SDS011;44878;50.102;18.982;2023-04-04T10:40:03;6.78;;;4.65;;
59089;SDS011;44878;50.102;18.982;2023-04-04T10:42:07;8.20;;;4.23;;
59089;SDS011;44878;50.102;18.982;2023-04-04T10:44:38;6.10;;;3.95;;
59089;SDS011;44878;50.102;18.982;2023-04-04T10:49:33;6.37;;;3.60;;
59089;SDS011;44878;50.102;18.982;2023-04-04T10:54:26;7.53;;;4.27;;
59089;SDS011;44878;50.102;18.982;2023-04-04T10:56:53;6.93;;;4.53;;
59089;SDS011;44878;50.102;18.982;2023-04-04T10:59:20;6.38;;;4.00;;
59089;SDS011;44878;50.102;18.982;2023-04-04T11:01:53;6.60;;;4.13;;
59089;SDS011;44878;50.102;18.982;2023-04-04T11:04:20;5.17;;;3.83;;
59089;SDS011;44878;50.102;18.982;2023-04-04T11:09:47;6.90;;;4.03;;
59089;SDS011;44878;50.102;18.982;2023-04-04T11:12:14;6.57;;;4.17;;
59089;SDS011;44878;50.102;18.982;2023-04-04T11:14:54;6.47;;;4.20;;
59089;SDS011;44878;50.102;18.982;2023-04-04T11:20:06;6.13;;;4.40;;
59089;SDS011;44878;50.102;18.982;2023-04-04T11:24:58;8.53;;;4.57;;
59089;SDS011;44878;50.102;18.982;2023-04-04T11:27:25;7.55;;;4.40;;
59089;SDS011;44878;50.102;18.982;2023-04-04T11:29:51;5.73;;;3.77;;
59089;SDS011;44878;50.102;18.982;2023-04-04T11:32:27;8.37;;;4.03;;
59089;SDS011;44878;50.102;18.982;2023-04-04T11:34:56;5.53;;;3.27;;
59089;SDS011;44878;50.102;18.982;2023-04-04T11:37:23;6.33;;;3.70;;
59089;SDS011;44878;50.102;18.982;2023-04-04T11:39:49;6.50;;;4.53;;
59089;SDS011;44878;50.102;18.982;2023-04-04T11:42:21;5.90;;;3.80;;
59089;SDS011;44878;50.102;18.982;2023-04-04T11:47:13;6.87;;;4.23;;
59089;SDS011;44878;50.102;18.982;2023-04-04T11:49:40;6.87;;;4.77;;
59089;SDS011;44878;50.102;18.982;2023-04-04T11:52:10;7.45;;;4.32;;
59089;SDS011;44878;50.102;18.982;2023-04-04T11:54:37;7.13;;;4.60;;
59089;SDS011;44878;50.102;18.982;2023-04-04T11:57:21;6.40;;;4.53;;
59089;SDS011;44878;50.102;18.982;2023-04-04T11:59:50;5.82;;;3.63;;
59089;SDS011;44878;50.102;18.982;2023-04-04T12:02:20;8.93;;;4.60;;
59089;SDS011;44878;50.102;18.982;2023-04-04T12:04:47;7.00;;;4.27;;
59089;SDS011;44878;50.102;18.982;2023-04-04T12:07:13;8.23;;;4.77;;
59089;SDS011;44878;50.102;18.982;2023-04-04T12:09:41;7.93;;;4.17;;
59089;SDS011;44878;50.102;18.982;2023-04-04T12:12:14;6.47;;;4.47;;
59089;SDS011;44878;50.102;18.982;2023-04-04T12:14:43;6.77;;;3.97;;
59089;SDS011;44878;50.102;18.982;2023-04-04T12:17:09;6.67;;;4.30;;
59089;SDS011;44878;50.102;18.982;2023-04-04T12:19:35;8.13;;;4.20;;
59089;SDS011;44878;50.102;18.982;2023-04-04T12:22:04;8.47;;;4.07;;
59089;SDS011;44878;50.102;18.982;2023-04-04T12:24:32;7.18;;;4.30;;
59089;SDS011;44878;50.102;18.982;2023-04-04T12:26:58;8.03;;;6.10;;
59089;SDS011;44878;50.102;18.982;2023-04-04T12:29:24;10.93;;;4.73;;
59089;SDS011;44878;50.102;18.982;2023-04-04T12:31:52;9.73;;;6.68;;
59089;SDS011;44878;50.102;18.982;2023-04-04T12:34:22;8.47;;;5.37;;
59089;SDS011;44878;50.102;18.982;2023-04-04T12:36:52;10.43;;;5.20;;
59089;SDS011;44878;50.102;18.982;2023-04-04T12:39:19;7.37;;;5.53;;
59089;SDS011;44878;50.102;18.982;2023-04-04T12:44:30;9.40;;;5.73;;
59089;SDS011;44878;50.102;18.982;2023-04-04T12:46:57;7.80;;;5.60;;
59089;SDS011;44878;50.102;18.982;2023-04-04T12:49:37;9.82;;;5.47;;
59089;SDS011;44878;50.102;18.982;2023-04-04T12:52:04;8.23;;;6.10;;
59089;SDS011;44878;50.102;18.982;2023-04-04T12:56:57;8.53;;;6.10;;
59089;SDS011;44878;50.102;18.982;2023-04-04T12:59:27;10.13;;;6.10;;
59089;SDS011;44878;50.102;18.982;2023-04-04T13:01:53;9.90;;;6.17;;
59089;SDS011;44878;50.102;18.982;2023-04-04T13:04:20;9.60;;;5.83;;
59089;SDS011;44878;50.102;18.982;2023-04-04T13:06:46;8.03;;;5.67;;
59089;SDS011;44878;50.102;18.982;2023-04-04T13:09:16;8.30;;;5.50;;
59089;SDS011;44878;50.102;18.982;2023-04-04T13:11:55;9.23;;;5.60;;
59089;SDS011;44878;50.102;18.982;2023-04-04T13:14:21;8.53;;;5.23;;
59089;SDS011;44878;50.102;18.982;2023-04-04T13:17:00;6.23;;;4.90;;
59089;SDS011;44878;50.102;18.982;2023-04-04T13:19:26;8.83;;;5.40;;
59089;SDS011;44878;50.102;18.982;2023-04-04T13:21:52;9.40;;;6.07;;
59089;SDS011;44878;50.102;18.982;2023-04-04T13:24:18;7.93;;;5.47;;
59089;SDS011;44878;50.102;18.982;2023-04-04T13:26:44;8.63;;;5.50;;
59089;SDS011;44878;50.102;18.982;2023-04-04T13:29:10;9.17;;;6.03;;
59089;SDS011;44878;50.102;18.982;2023-04-04T13:31:36;9.93;;;6.30;;
59089;SDS011;44878;50.102;18.982;2023-04-04T13:34:02;9.00;;;5.70;;
59089;SDS011;44878;50.102;18.982;2023-04-04T13:36:28;9.10;;;5.97;;
59089;SDS011;44878;50.102;18.982;2023-04-04T13:38:58;11.70;;;5.93;;
59089;SDS011;44878;50.102;18.982;2023-04-04T13:41:24;7.33;;;4.83;;
59089;SDS011;44878;50.102;18.982;2023-04-04T13:43:50;7.57;;;5.63;;
59089;SDS011;44878;50.102;18.982;2023-04-04T13:46:16;8.03;;;5.50;;
59089;SDS011;44878;50.102;18.982;2023-04-04T13:48:42;6.87;;;5.07;;
59089;SDS011;44878;50.102;18.982;2023-04-04T13:51:08;11.27;;;5.43;;
59089;SDS011;44878;50.102;18.982;2023-04-04T13:53:34;9.47;;;5.50;;
59089;SDS011;44878;50.102;18.982;2023-04-04T13:56:02;9.03;;;5.23;;
59089;SDS011;44878;50.102;18.982;2023-04-04T13:58:28;34.97;;;31.47;;
59089;SDS011;44878;50.102;18.982;2023-04-04T14:00:54;9.97;;;6.20;;
59089;SDS011;44878;50.102;18.982;2023-04-04T14:03:22;9.80;;;6.38;;
59089;SDS011;44878;50.102;18.982;2023-04-04T14:05:48;8.17;;;5.57;;
59089;SDS011;44878;50.102;18.982;2023-04-04T14:08:14;9.67;;;5.37;;
59089;SDS011;44878;50.102;18.982;2023-04-04T14:10:40;9.07;;;5.70;;
59089;SDS011;44878;50.102;18.982;2023-04-04T14:13:09;11.60;;;5.63;;
59089;SDS011;44878;50.102;18.982;2023-04-04T14:15:35;8.53;;;5.23;;
59089;SDS011;44878;50.102;18.982;2023-04-04T14:18:00;7.80;;;4.97;;
59089;SDS011;44878;50.102;18.982;2023-04-04T14:20:26;9.37;;;5.77;;
59089;SDS011;44878;50.102;18.982;2023-04-04T14:22:52;8.10;;;5.43;;
59089;SDS011;44878;50.102;18.982;2023-04-04T14:25:18;7.70;;;5.10;;
59089;SDS011;44878;50.102;18.982;2023-04-04T14:27:44;9.77;;;5.67;;
59089;SDS011;44878;50.102;18.982;2023-04-04T14:30:10;8.07;;;5.90;;
59089;SDS011;44878;50.102;18.982;2023-04-04T14:32:36;10.73;;;5.83;;
59089;SDS011;44878;50.102;18.982;2023-04-04T14:35:05;8.50;;;5.70;;
59089;SDS011;44878;50.102;18.982;2023-04-04T14:37:31;9.67;;;5.77;;
59089;SDS011;44878;50.102;18.982;2023-04-04T14:39:57;8.70;;;5.73;;
59089;SDS011;44878;50.102;18.982;2023-04-04T14:42:23;8.53;;;5.73;;
59089;SDS011;44878;50.102;18.982;2023-04-04T14:44:49;26.00;;;17.97;;
59089;SDS011;44878;50.102;18.982;2023-04-04T14:47:14;11.57;;;5.80;;
59089;SDS011;44878;50.102;18.982;2023-04-04T14:49:40;9.53;;;5.40;;
59089;SDS011;44878;50.102;18.982;2023-04-04T14:52:07;8.20;;;4.80;;